M I D A S
Marine Information and Data Acquisition System
Tripno 2150 of the Zeeleeuw from 2011-07-25 06:42:10 to 2011-07-25 13:06:22
Back to CruiseResearch ActivitiesStationsMapUnderway DataData graphs

EquipmentUnitsComment
TimeDGPSUTC
LatitudeDGPSDM.mWGS84
LongitudeDGPSDM.mWGS84
TemperatureSBE03/SBE38deg celciusITS90
ConductivitySBE21S/mITS90
SalinitySBE21 Practical Salinity Units
ChlorophylAChelsea fluorimeterg/lCalibrated in Aceton
Missing or incorrect values are displayed as -999
Sea surface data collected by the RV Zeeleeuw from 2011-07-25 06:31:22 to 2011-07-25 13:19:12
Time Latitude Longitude Temperature Conductivity Salinity ChlorophylA
2011-07-25 06:32:30 51°13.654 2°55.947 19.3577 0.01012 0.056144 -3.020363
2011-07-25 06:33:30 51°13.679 2°55.856 19.3687 0.01012 0.056149 -3.020363
2011-07-25 06:34:30 51°13.701 2°55.777 19.3586 0.01012 0.056153 -3.020363
2011-07-25 06:35:30 51°13.709 2°55.727 19.3796 0.01012 0.056158 -3.020363
2011-07-25 06:36:30 51°13.712 2°55.735 19.3611 0.01012 0.056162 -3.020363
2011-07-25 06:37:31 51°13.704 2°55.725 19.4054 0.01012 0.056165 -3.020363
2011-07-25 06:38:29 51°13.786 2°55.666 19.357 0.01012 0.056169 -3.020363
2011-07-25 06:39:29 51°13.93 2°55.555 19.3582 0.01012 0.056173 -3.020363
2011-07-25 06:40:29 51°14.088 2°55.442 19.3874 0.01012 0.056177 -3.020363
2011-07-25 06:41:30 51°14.25 2°55.315 19.3519 0.01012 0.05618 -3.020363
2011-07-25 06:42:30 51°14.41 2°55.164 19.3731 0.01012 0.056184 -3.020363
2011-07-25 06:43:30 51°14.578 2°55.005 19.3037 0.01012 0.056187 -3.020363
2011-07-25 06:44:29 51°14.754 2°54.839 19.3124 0.01012 0.056191 -3.020363
2011-07-25 06:45:28 51°14.913 2°54.635 19.2871 0.01012 0.056194 -3.020363
2011-07-25 06:46:27 51°15.072 2°54.43 19.2952 0.01012 0.056197 -3.020363
2011-07-25 06:47:27 51°15.23 2°54.213 19.2955 0.01012 0.056199 -3.020363
2011-07-25 06:48:27 51°15.404 2°54.029 19.3111 0.01012 0.056202 -3.020363
2011-07-25 06:49:27 51°15.572 2°53.832 19.2968 0.01012 0.056204 -3.020363
2011-07-25 06:50:27 51°15.733 2°53.629 19.3009 0.01012 0.056207 -3.020363
2011-07-25 06:51:27 51°15.899 2°53.433 19.3249 0.01012 0.056208 -3.020363
2011-07-25 06:52:26 51°16.09 2°53.3 19.3364 0.01012 0.056211 -3.020363
2011-07-25 06:53:26 51°16.275 2°53.137 19.3347 0.01012 0.056213 -3.020363
2011-07-25 06:54:27 51°16.454 2°52.955 19.344 0.01012 0.056215 -3.020363
2011-07-25 06:55:26 51°16.639 2°52.802 19.3582 0.01012 0.056215 -3.020363
2011-07-25 06:56:27 51°16.835 2°52.659 19.3699 0.01012 0.056217 -3.020363
2011-07-25 06:57:26 51°17.019 2°52.501 17.9199 4.542843 33.358588 -3.020363
2011-07-25 06:58:26 51°17.218 2°52.38 17.6578 4.024092 30.218484 -3.020363
2011-07-25 06:59:26 51°17.422 2°52.284 17.6295 4.246655 32.223741 -3.020363
2011-07-25 07:00:26 51°17.635 2°52.214 17.6358 4.24707 32.250631 -3.020363
2011-07-25 07:01:26 51°17.848 2°52.149 17.6412 4.249558 32.270467 -3.020363
2011-07-25 07:02:26 51°18.058 2°52.072 17.6387 4.251424 32.285661 -3.020363
2011-07-25 07:03:27 51°18.278 2°52.057 17.6151 4.25215 32.299415 -3.020363
2011-07-25 07:04:26 51°18.493 2°52.048 17.6078 4.250803 32.303185 -3.020363
2011-07-25 07:05:26 51°18.706 2°52.04 17.6185 4.251736 32.316177 -3.020363
2011-07-25 07:06:26 51°18.922 2°52.027 17.6177 4.255157 32.338241 -3.020363
2011-07-25 07:07:26 51°19.144 2°52.05 17.616 4.257853 32.362392 -3.020363
2011-07-25 07:08:26 51°19.365 2°52.056 17.6462 4.266356 32.43394 -3.020363
2011-07-25 07:09:26 51°19.588 2°52.075 17.6678 4.27942 32.518743 -3.020363
2011-07-25 07:10:26 51°19.809 2°52.085 17.6698 4.289582 32.593517 -3.020363
2011-07-25 07:11:26 51°20.031 2°52.092 17.6645 4.291863 32.612244 -3.020363
2011-07-25 07:12:26 51°20.253 2°52.105 17.6454 4.28979 32.603584 -3.020363
2011-07-25 07:13:26 51°20.472 2°52.112 17.6393 4.290619 32.621499 -3.020363
2011-07-25 07:14:26 51°20.686 2°52.095 17.6339 4.300263 32.707278 -3.020363
2011-07-25 07:15:26 51°20.903 2°52.098 17.6276 4.303374 32.738212 -3.020363
2011-07-25 07:16:26 51°21.121 2°52.083 17.6297 4.305448 32.759698 -3.020363
2011-07-25 07:17:26 51°21.342 2°52.088 17.629 4.305448 32.759698 -3.020363
2011-07-25 07:18:26 51°21.563 2°52.084 17.6303 4.307729 32.777166 -3.020363
2011-07-25 07:19:26 51°21.784 2°52.074 17.6298 4.309077 32.787342 -3.020363
2011-07-25 07:20:26 51°22.007 2°52.081 17.6272 4.30804 32.782384 -3.020363
2011-07-25 07:21:26 51°22.23 2°52.07 17.6198 4.307315 32.778784 -3.020363
2011-07-25 07:22:26 51°22.454 2°52.069 17.6188 4.306796 32.778878 -3.020363
2011-07-25 07:23:26 51°22.677 2°52.07 17.6057 4.308559 32.797734 -3.020363
2011-07-25 07:24:27 51°22.907 2°52.079 17.5908 4.314678 32.86075 -3.020363
2011-07-25 07:25:26 51°23.124 2°52.066 17.6136 4.321729 32.925303 -3.020363
2011-07-25 07:26:26 51°23.346 2°52.06 17.6231 4.342781 33.085778 -3.020363
2011-07-25 07:27:26 51°23.569 2°52.06 17.6263 4.354188 33.177095 -3.020363
2011-07-25 07:28:26 51°23.789 2°52.035 17.6294 4.363003 33.250899 -3.020363
2011-07-25 07:29:26 51°24.009 2°52.026 17.6369 4.369537 33.302007 -3.020363
2011-07-25 07:30:26 51°24.225 2°52.012 17.6414 4.375863 33.349386 -3.020363
2011-07-25 07:31:26 51°24.44 2°51.989 17.6437 4.379286 33.375937 -3.020363
2011-07-25 07:32:26 51°24.662 2°51.981 17.643 4.38053 33.385235 -3.020363
2011-07-25 07:33:26 51°24.881 2°51.974 17.6458 4.380219 33.382583 -3.020363
2011-07-25 07:34:26 51°25.105 2°51.993 17.6361 4.378249 33.365789 -3.020363
2011-07-25 07:35:26 51°25.327 2°52.002 17.6223 4.376382 33.359042 -3.020363
2011-07-25 07:36:27 51°25.553 2°52.019 17.6045 4.3713 33.326191 -3.020363
2011-07-25 07:37:27 51°25.776 2°52.036 17.5991 4.367671 33.306363 -3.020363
2011-07-25 07:38:26 51°25.995 2°52.036 17.6049 4.36736 33.306326 -3.020363
2011-07-25 07:39:26 51°26.221 2°52.049 17.6105 4.372545 33.347931 -3.020363
2011-07-25 07:40:26 51°26.442 2°52.059 17.6167 4.376901 33.378529 -3.020363
2011-07-25 07:41:26 51°26.606 2°52.08 17.6217 4.382086 33.416198 -3.020363
2011-07-25 07:42:26 51°26.689 2°52.059 17.6223 4.38385 33.430579 -3.020363
2011-07-25 07:43:26 51°26.718 2°51.978 17.6203 4.38499 33.440309 -3.020363
2011-07-25 07:44:26 51°26.735 2°51.973 17.624 4.385302 33.442307 -3.020363
2011-07-25 07:45:26 51°26.757 2°51.988 17.627 4.385613 33.443647 -3.020363
2011-07-25 07:46:26 51°26.774 2°52.003 17.6215 4.38582 33.445417 -3.020363
2011-07-25 07:47:27 51°26.774 2°52.003 17.6195 4.386028 33.449156 -3.020363
2011-07-25 07:48:26 51°26.771 2°52.002 17.6209 4.386235 33.450925 -3.020363
2011-07-25 07:49:26 51°26.772 2°52.004 17.6204 4.386546 33.453579 -3.020363
2011-07-25 07:50:26 51°26.773 2°52.007 17.6183 4.386754 33.454691 -3.020363
2011-07-25 07:51:26 51°26.773 2°52.006 17.6198 4.386961 33.457774 -3.020363
2011-07-25 07:52:27 51°26.772 2°52.004 17.6214 4.387272 33.459115 -3.020363
2011-07-25 07:53:26 51°26.773 2°52.003 17.6238 4.387687 33.461997 -3.020363
2011-07-25 07:54:26 51°26.773 2°52.006 17.6262 4.388205 33.463792 -3.020363
2011-07-25 07:55:26 51°26.773 2°52.005 17.6264 4.38862 33.466017 -3.020363
2011-07-25 07:56:26 51°26.773 2°52.005 17.6293 4.389035 33.468241 -3.020363
2011-07-25 07:57:26 51°26.772 2°52.005 17.6277 4.38945 33.472437 -3.020363
2011-07-25 07:58:26 51°26.772 2°52.006 17.6285 4.389761 33.474434 -3.020363
2011-07-25 07:59:26 51°26.772 2°52.006 17.6325 4.390072 33.475773 -3.020363
2011-07-25 08:00:26 51°26.773 2°52.005 17.6315 4.390383 33.477113 -3.020363
2011-07-25 08:01:26 51°26.773 2°52.005 17.6361 4.390695 33.47911 -3.020363
2011-07-25 08:02:26 51°26.773 2°52.007 17.6354 4.391109 33.48002 -3.020363
2011-07-25 08:03:26 51°26.772 2°52.007 17.6359 4.391213 33.478933 -3.020363
2011-07-25 08:04:26 51°26.771 2°52.01 17.6376 4.391213 33.47959 -3.020363
2011-07-25 08:05:26 51°26.77 2°52.01 17.6368 4.390902 33.475623 -3.020363
2011-07-25 08:06:26 51°26.772 2°52.009 17.64 4.390591 33.47297 -3.020363
2011-07-25 08:07:26 51°26.772 2°52.007 17.6378 4.39028 33.469003 -3.020363
2011-07-25 08:08:26 51°26.773 2°52.005 17.6384 4.390176 33.468775 -3.020363
2011-07-25 08:09:27 51°26.773 2°52.006 17.6382 4.389761 33.465895 -3.020363
2011-07-25 08:10:26 51°26.773 2°52.007 17.6373 4.389657 33.464354 -3.020363
2011-07-25 08:11:26 51°26.772 2°52.008 17.6381 4.38945 33.463242 -3.020363
2011-07-25 08:12:26 51°26.771 2°52.009 17.6372 4.389346 33.462357 -3.020363
2011-07-25 08:13:26 51°26.771 2°52.009 17.6376 4.38945 33.461272 -3.020363
2011-07-25 08:14:26 51°26.771 2°52.01 17.6394 4.389554 33.463469 -3.020363
2011-07-25 08:15:26 51°26.771 2°52.009 17.641 4.389657 33.462384 -3.020363
2011-07-25 08:16:26 51°26.772 2°52.007 17.6412 4.389657 33.461727 -3.020363
2011-07-25 08:17:26 51°26.772 2°52.007 17.6441 4.389761 33.461955 -3.020363
2011-07-25 08:18:26 51°26.773 2°52.007 17.6451 4.389657 33.460415 -3.020363
2011-07-25 08:19:26 51°26.772 2°52.007 17.6447 4.389761 33.458673 -3.020363
2011-07-25 08:20:27 51°26.771 2°52.008 17.6431 4.389553 33.45953 -3.020363
2011-07-25 08:21:26 51°26.772 2°52.008 17.6446 4.389657 33.460415 -3.020363
2011-07-25 08:22:26 51°26.772 2°52.006 17.6433 4.389865 33.461527 -3.020363
2011-07-25 08:23:26 51°26.772 2°52.004 17.644 4.389865 33.461527 -3.020363
2011-07-25 08:24:26 51°26.773 2°52.004 17.6449 4.386442 33.431037 -3.020363
2011-07-25 08:25:26 51°26.773 2°52.004 17.6448 4.386338 33.430809 -3.020363
2011-07-25 08:26:26 51°26.771 2°52.005 17.6446 4.386131 33.429041 -3.020363
2011-07-25 08:27:27 51°26.764 2°52 17.6464 4.386027 33.427501 -3.020363
2011-07-25 08:28:26 51°26.751 2°51.99 17.6427 4.385716 33.425505 -3.020363
2011-07-25 08:29:26 51°26.738 2°51.979 17.6445 4.385509 33.423736 -3.020363
2011-07-25 08:30:26 51°26.733 2°51.975 17.6459 4.385509 33.422425 -3.020363
2011-07-25 08:31:26 51°26.732 2°51.976 17.6465 4.385509 33.42177 -3.020363
2011-07-25 08:32:26 51°26.734 2°51.969 17.6465 4.385509 33.42177 -3.020363
2011-07-25 08:33:26 51°26.761 2°51.916 17.6407 4.385716 33.424193 -3.020363
2011-07-25 08:34:26 51°26.865 2°51.896 17.6409 4.386235 33.432548 -3.020363
2011-07-25 08:35:26 51°27.048 2°51.823 17.6411 4.386546 33.435201 -3.020363
2011-07-25 08:36:26 51°27.254 2°51.741 17.636 4.388413 33.451116 -3.020363
2011-07-25 08:37:26 51°27.459 2°51.671 17.633 4.389761 33.465238 -3.020363
2011-07-25 08:38:26 51°27.675 2°51.603 17.627 4.391732 33.485984 -3.020363
2011-07-25 08:39:26 51°27.892 2°51.52 17.6281 4.392873 33.500316 -3.020363
2011-07-25 08:40:26 51°28.112 2°51.458 17.6409 4.396814 33.53262 -3.020363
2011-07-25 08:41:26 51°28.33 2°51.384 17.6508 4.413305 33.658816 -3.020363
2011-07-25 08:42:26 51°28.547 2°51.397 17.6469 4.426477 33.769254 -3.020363
2011-07-25 08:43:26 51°28.734 2°51.614 17.6501 4.433219 33.825487 -3.020363
2011-07-25 08:44:26 51°28.919 2°51.844 17.6572 4.433842 33.828809 -3.020363
2011-07-25 08:45:26 51°29.109 2°52.06 17.6635 4.431145 33.799818 -3.020363
2011-07-25 08:46:26 51°29.324 2°52.193 17.6658 4.428967 33.777252 -3.020363
2011-07-25 08:47:26 51°29.543 2°52.306 17.6616 4.426373 33.753801 -3.020363
2011-07-25 08:48:26 51°29.763 2°52.415 17.6636 4.426477 33.756671 -3.020363
2011-07-25 08:49:26 51°29.981 2°52.527 17.651 4.427411 33.767948 -3.020363
2011-07-25 08:50:26 51°30.2 2°52.644 17.6328 4.428137 33.784084 -3.020363
2011-07-25 08:51:26 51°30.424 2°52.735 17.6186 4.429486 33.81019 -3.020363
2011-07-25 08:52:26 51°30.646 2°52.789 17.5981 4.431145 33.836986 -3.020363
2011-07-25 08:53:26 51°30.82 2°52.782 17.5862 4.432702 33.862252 -3.020363
2011-07-25 08:54:26 51°30.928 2°52.787 17.5801 4.434465 33.88798 -3.020363
2011-07-25 08:55:26 51°31.028 2°52.78 17.5727 4.43654 33.91172 -3.020363
2011-07-25 08:56:26 51°31.122 2°52.717 17.5684 4.439237 33.938127 -3.020363
2011-07-25 08:57:26 51°31.22 2°52.647 17.556 4.442867 33.97654 -3.020363
2011-07-25 08:58:26 51°31.273 2°52.587 17.5529 4.445772 34.011434 -3.020363
2011-07-25 08:59:26 51°31.28 2°52.548 17.5424 4.447328 34.029444 -3.020363
2011-07-25 09:00:26 51°31.294 2°52.553 17.5388 4.448469 34.043906 -3.020363
2011-07-25 09:01:26 51°31.31 2°52.563 17.5367 4.449091 34.051918 -3.020363
2011-07-25 09:02:26 51°31.314 2°52.571 17.5376 4.449402 34.055254 -3.020363
2011-07-25 09:03:26 51°31.308 2°52.576 17.5347 4.449817 34.06015 -3.020363
2011-07-25 09:04:26 51°31.306 2°52.58 17.5326 4.450128 34.062816 -3.020363
2011-07-25 09:05:26 51°31.306 2°52.581 17.5334 4.450336 34.066605 -3.020363
2011-07-25 09:06:26 51°31.308 2°52.579 17.5377 4.450543 34.0657 -3.020363
2011-07-25 09:07:26 51°31.31 2°52.575 17.5402 4.450336 34.061911 -3.020363
2011-07-25 09:08:26 51°31.311 2°52.574 17.541 4.450647 34.062566 -3.020363
2011-07-25 09:09:26 51°31.312 2°52.574 17.5451 4.450647 34.060555 -3.020363
2011-07-25 09:10:26 51°31.311 2°52.574 17.5475 4.450232 34.05432 -3.020363
2011-07-25 09:11:26 51°31.311 2°52.576 17.5464 4.450958 34.061209 -3.020363
2011-07-25 09:12:26 51°31.311 2°52.575 17.5464 4.451062 34.060757 -3.020363
2011-07-25 09:13:26 51°31.311 2°52.575 17.5489 4.451062 34.059417 -3.020363
2011-07-25 09:14:26 51°31.311 2°52.576 17.5504 4.451269 34.061194 -3.020363
2011-07-25 09:15:26 51°31.311 2°52.575 17.5504 4.451477 34.06163 -3.020363
2011-07-25 09:16:26 51°31.311 2°52.574 17.55 4.451788 34.064296 -3.020363
2011-07-25 09:17:26 51°31.311 2°52.574 17.5512 4.45158 34.061848 -3.020363
2011-07-25 09:18:26 51°31.312 2°52.574 17.5556 4.451684 34.060056 -3.020363
2011-07-25 09:19:26 51°31.312 2°52.573 17.559 4.451684 34.058716 -3.020363
2011-07-25 09:20:26 51°31.311 2°52.573 17.5551 4.451684 34.058046 -3.020363
2011-07-25 09:21:26 51°31.31 2°52.575 17.5557 4.451477 34.05694 -3.020363
2011-07-25 09:22:26 51°31.311 2°52.576 17.5541 4.451684 34.059386 -3.020363
2011-07-25 09:23:26 51°31.311 2°52.574 17.5581 4.451269 34.054493 -3.020363
2011-07-25 09:24:26 51°31.311 2°52.574 17.5598 4.45075 34.048042 -3.020363
2011-07-25 09:25:26 51°31.311 2°52.574 17.5623 4.451373 34.052032 -3.020363
2011-07-25 09:26:26 51°31.312 2°52.574 17.5633 4.452099 34.05624 -3.020363
2011-07-25 09:27:26 51°31.311 2°52.573 17.5659 4.452203 34.056458 -3.020363
2011-07-25 09:28:26 51°31.312 2°52.574 17.5703 4.45241 34.054885 -3.020363
2011-07-25 09:29:26 51°31.311 2°52.574 17.5757 4.45241 34.050198 -3.020363
2011-07-25 09:30:26 51°31.311 2°52.575 17.5813 4.452617 34.048626 -3.020363
2011-07-25 09:31:26 51°31.311 2°52.575 17.5818 4.45241 34.044173 -3.020363
2011-07-25 09:32:26 51°31.31 2°52.575 17.585 4.452825 34.045047 -3.020363
2011-07-25 09:33:26 51°31.31 2°52.575 17.5879 4.452721 34.042152 -3.020363
2011-07-25 09:34:26 51°31.311 2°52.576 17.5877 4.452928 34.04192 -3.020363
2011-07-25 09:35:26 51°31.311 2°52.575 17.5886 4.452928 34.041251 -3.020363
2011-07-25 09:36:26 51°31.311 2°52.575 17.5866 4.453136 34.042357 -3.020363
2011-07-25 09:37:26 51°31.313 2°52.572 17.5858 4.453032 34.043477 -3.020363
2011-07-25 09:38:26 51°31.312 2°52.572 17.5902 4.453032 34.043477 -3.020363
2011-07-25 09:39:26 51°31.311 2°52.574 17.5923 4.453239 34.042576 -3.020363
2011-07-25 09:40:26 51°31.31 2°52.577 17.5944 4.453343 34.041456 -3.020363
2011-07-25 09:41:26 51°31.31 2°52.576 17.595 4.453136 34.039012 -3.020363
2011-07-25 09:42:26 51°31.311 2°52.575 17.5955 4.453239 34.037893 -3.020363
2011-07-25 09:43:26 51°31.312 2°52.574 17.5971 4.452617 34.0319 -3.020363
2011-07-25 09:44:26 51°31.312 2°52.572 17.5983 4.453551 34.039218 -3.020363
2011-07-25 09:45:26 51°31.312 2°52.574 17.599 4.453551 34.039218 -3.020363
2011-07-25 09:46:26 51°31.311 2°52.574 17.5986 4.453862 34.04188 -3.020363
2011-07-25 09:47:26 51°31.305 2°52.571 17.5995 4.453551 34.038549 -3.020363
2011-07-25 09:48:26 51°31.299 2°52.562 17.6017 4.453862 34.040543 -3.020363
2011-07-25 09:49:26 51°31.294 2°52.551 17.6039 4.455003 34.04696 -3.020363
2011-07-25 09:50:26 51°31.293 2°52.549 17.6097 4.455314 34.047615 -3.020363
2011-07-25 09:51:26 51°31.297 2°52.552 17.6132 4.455521 34.045377 -3.020363
2011-07-25 09:52:26 51°31.302 2°52.555 17.6201 4.455832 34.043358 -3.020363
2011-07-25 09:53:26 51°31.305 2°52.553 17.6252 4.456143 34.04134 -3.020363
2011-07-25 09:54:26 51°31.305 2°52.547 17.6261 4.456247 34.039553 -3.020363
2011-07-25 09:55:26 51°31.297 2°52.541 17.6277 4.456351 34.037767 -3.020363
2011-07-25 09:56:26 51°31.263 2°52.505 17.6301 4.456247 34.03688 -3.020363
2011-07-25 09:57:26 51°31.189 2°52.393 17.6362 4.455728 34.02777 -3.020363
2011-07-25 09:58:26 51°31.075 2°52.23 17.6464 4.454172 34.0118 -3.020363
2011-07-25 09:59:26 51°30.933 2°52.032 17.6636 4.452409 33.986724 -3.020363
2011-07-25 10:00:26 51°30.787 2°51.829 17.6564 4.451579 33.972303 -3.020363
2011-07-25 10:01:26 51°30.64 2°51.633 17.6674 4.450853 33.960106 -3.020363
2011-07-25 10:02:26 51°30.494 2°51.433 17.6689 4.448674 33.936846 -3.020363
2011-07-25 10:03:26 51°30.347 2°51.24 17.6849 4.448052 33.930202 -3.020363
2011-07-25 10:04:26 51°30.2 2°51.041 17.7071 4.446184 33.898314 -3.020363
2011-07-25 10:05:26 51°30.049 2°50.844 17.7086 4.44608 33.88216 -3.020363
2011-07-25 10:06:26 51°29.899 2°50.647 17.736 4.446599 33.879286 -3.020363
2011-07-25 10:07:26 51°29.75 2°50.451 17.7596 4.445458 33.845704 -3.020363
2011-07-25 10:08:26 51°29.601 2°50.251 17.768 4.444524 33.82584 -3.020363
2011-07-25 10:09:26 51°29.452 2°50.049 17.7711 4.443487 33.813039 -3.020363
2011-07-25 10:10:26 51°29.301 2°49.851 17.7719 4.444005 33.814151 -3.020363
2011-07-25 10:11:26 51°29.151 2°49.65 17.7679 4.445768 33.827183 -3.020363
2011-07-25 10:12:26 51°29 2°49.448 17.7748 4.448362 33.851912 -3.020363
2011-07-25 10:13:26 51°28.849 2°49.25 17.7847 4.45137 33.872236 -3.020363
2011-07-25 10:14:26 51°28.7 2°49.052 17.7601 4.451058 33.87091 -3.020363
2011-07-25 10:15:26 51°28.55 2°48.854 17.7531 4.44691 33.851456 -3.020363
2011-07-25 10:16:26 51°28.399 2°48.66 17.7563 4.445146 33.83048 -3.020363
2011-07-25 10:17:26 51°28.252 2°48.455 17.7458 4.444109 33.829583 -3.020363
2011-07-25 10:18:26 51°28.103 2°48.254 17.7494 4.445873 33.849902 -3.020363
2011-07-25 10:19:26 51°27.951 2°48.058 17.7598 4.45054 33.883713 -3.020363
2011-07-25 10:20:26 51°27.8 2°47.859 17.7939 4.458423 33.937622 -3.020363
2011-07-25 10:21:26 51°27.65 2°47.66 17.8106 4.467032 33.984414 -3.020363
2011-07-25 10:22:26 51°27.5 2°47.454 17.7869 4.470041 34.0014 -3.020363
2011-07-25 10:23:26 51°27.35 2°47.248 17.7683 4.468692 34.015159 -3.020363
2011-07-25 10:24:26 51°27.197 2°47.046 17.7585 4.467448 34.017185 -3.020363
2011-07-25 10:25:26 51°27.046 2°46.837 17.755 4.467552 34.023391 -3.020363
2011-07-25 10:26:26 51°26.896 2°46.625 17.7358 4.467448 34.026499 -3.020363
2011-07-25 10:27:26 51°26.745 2°46.414 17.7171 4.465581 34.031882 -3.020363
2011-07-25 10:28:26 51°26.592 2°46.208 17.7074 4.464026 34.029932 -3.020363
2011-07-25 10:29:26 51°26.494 2°46.063 17.7174 4.463507 34.026172 -3.020363
2011-07-25 10:30:26 51°26.422 2°45.969 17.7147 4.463299 34.024402 -3.020363
2011-07-25 10:31:26 51°26.364 2°45.893 17.7159 4.463507 34.022175 -3.020363
2011-07-25 10:32:26 51°26.313 2°45.825 17.7125 4.463507 34.022841 -3.020363
2011-07-25 10:33:26 51°26.266 2°45.76 17.7069 4.463196 34.022851 -3.020363
2011-07-25 10:34:26 51°26.222 2°45.691 17.7045 4.462781 34.021975 -3.020363
2011-07-25 10:35:26 51°26.177 2°45.626 17.7016 4.462055 34.022441 -3.020363
2011-07-25 10:36:26 51°26.129 2°45.564 17.6998 4.461847 34.022003 -3.020363
2011-07-25 10:37:26 51°26.081 2°45.501 17.7022 4.462262 34.022879 -3.020363
2011-07-25 10:38:26 51°26.034 2°45.438 17.7038 4.463196 34.031514 -3.020363
2011-07-25 10:39:26 51°25.989 2°45.372 17.6973 4.463092 34.030628 -3.020363
2011-07-25 10:40:26 51°25.935 2°45.291 17.6903 4.462574 34.031534 -3.020363
2011-07-25 10:41:26 51°25.866 2°45.192 17.6925 4.461121 34.023804 -3.020363
2011-07-25 10:42:26 51°25.789 2°45.096 17.6993 4.46247 34.032649 -3.020363
2011-07-25 10:43:26 51°25.713 2°44.995 17.701 4.462781 34.029972 -3.020363
2011-07-25 10:44:26 51°25.637 2°44.896 17.7025 4.462366 34.025097 -3.020363
2011-07-25 10:45:26 51°25.562 2°44.796 17.7059 4.461432 34.016463 -3.020363
2011-07-25 10:46:26 51°25.488 2°44.691 17.7056 4.460914 34.008706 -3.020363
2011-07-25 10:47:26 51°25.413 2°44.589 17.7052 4.460706 34.00627 -3.020363
2011-07-25 10:48:26 51°25.336 2°44.494 17.7032 4.460084 34.002956 -3.020363
2011-07-25 10:49:26 51°25.259 2°44.398 17.7101 4.459254 33.995209 -3.020363
2011-07-25 10:50:26 51°25.185 2°44.299 17.7226 4.457076 33.969304 -3.020363
2011-07-25 10:51:26 51°25.111 2°44.202 17.7336 4.456038 33.949155 -3.020363
2011-07-25 10:52:26 51°25.036 2°44.102 17.7268 4.454897 33.934113 -3.020363
2011-07-25 10:53:26 51°24.959 2°44.006 17.7177 4.45469 33.939649 -3.020363
2011-07-25 10:54:26 51°24.883 2°43.909 17.7314 4.454171 33.934563 -3.020363
2011-07-25 10:55:26 51°24.808 2°43.81 17.7409 4.453652 33.922837 -3.020363
2011-07-25 10:56:26 51°24.736 2°43.712 17.7461 4.453548 33.91797 -3.020363
2011-07-25 10:57:26 51°24.683 2°43.658 17.7524 4.453548 33.911999 -3.020363
2011-07-25 10:58:26 51°24.659 2°43.666 17.7632 4.452926 33.900065 -3.020363
2011-07-25 10:59:26 51°24.664 2°43.678 17.7663 4.452718 33.890344 -3.020363
2011-07-25 11:00:26 51°24.669 2°43.693 17.765 4.452303 33.885485 -3.020363
2011-07-25 11:01:26 51°24.672 2°43.712 17.7402 4.451992 33.884821 -3.020363
2011-07-25 11:02:26 51°24.675 2°43.734 17.7225 4.45137 33.903383 -3.020363
2011-07-25 11:03:26 51°24.676 2°43.757 17.7255 4.450126 33.901396 -3.020363
2011-07-25 11:04:26 51°24.676 2°43.778 17.7251 4.449711 33.895868 -3.020363
2011-07-25 11:05:26 51°24.675 2°43.799 17.7302 4.449399 33.892552 -3.020363
2011-07-25 11:06:26 51°24.648 2°43.807 17.7508 4.449296 33.885699 -3.020363
2011-07-25 11:07:26 51°24.629 2°43.752 17.7803 4.449192 33.8656 -3.020363
2011-07-25 11:08:26 51°24.646 2°43.709 17.8078 4.449606 33.842667 -3.020363
2011-07-25 11:09:26 51°24.664 2°43.694 17.8142 4.451162 33.840047 -3.020363
2011-07-25 11:10:28 51°24.667 2°43.708 17.8047 4.451473 33.840052 -3.020363
2011-07-25 11:11:26 51°24.668 2°43.721 17.769 4.451369 33.851726 -3.020363
2011-07-25 11:12:26 51°24.669 2°43.734 17.7557 4.450332 33.868036 -3.020363
2011-07-25 11:13:26 51°24.672 2°43.748 17.7508 4.449607 33.871784 -3.020363
2011-07-25 11:14:26 51°24.674 2°43.761 17.7518 4.449088 33.870015 -3.020363
2011-07-25 11:15:26 51°24.675 2°43.775 17.7579 4.448984 33.867806 -3.020363
2011-07-25 11:16:26 51°24.688 2°43.789 17.7623 4.449399 33.864719 -3.020363
2011-07-25 11:17:26 51°24.723 2°43.756 17.7624 4.449814 33.864942 -3.020363
2011-07-25 11:18:26 51°24.722 2°43.698 17.7773 4.449917 33.862516 -3.020363
2011-07-25 11:19:26 51°24.686 2°43.679 17.7823 4.450955 33.866055 -3.020363
2011-07-25 11:20:26 51°24.662 2°43.685 17.7932 4.451992 33.864961 -3.020363
2011-07-25 11:21:26 51°24.668 2°43.7 17.782 4.45251 33.866068 -3.020363
2011-07-25 11:22:30 51°24.673 2°43.715 17.761 4.452303 33.874228 -3.020363
2011-07-25 11:23:29 51°24.675 2°43.729 17.7503 4.45137 33.882832 -3.020363
2011-07-25 11:24:28 51°24.675 2°43.744 17.7396 4.450644 33.884597 -3.020363
2011-07-25 11:25:26 51°24.674 2°43.76 17.7343 4.450022 33.887247 -3.020363
2011-07-25 11:26:26 51°24.671 2°43.775 17.7396 4.44971 33.886584 -3.020363
2011-07-25 11:27:26 51°24.667 2°43.791 17.747 4.450125 33.886142 -3.020363
2011-07-25 11:28:26 51°24.652 2°43.8 17.7588 4.450333 33.883933 -3.020363
2011-07-25 11:29:26 51°24.626 2°43.773 17.7925 4.450851 33.87444 -3.020363
2011-07-25 11:30:26 51°24.632 2°43.711 17.7998 4.450436 33.845764 -3.020363
2011-07-25 11:31:26 51°24.658 2°43.686 17.8002 4.449917 33.835402 -3.020363
2011-07-25 11:32:26 51°24.669 2°43.691 17.8013 4.450228 33.837389 -3.020363
2011-07-25 11:33:26 51°24.671 2°43.704 17.7921 4.450436 33.839815 -3.020363
2011-07-25 11:34:26 51°24.671 2°43.716 17.7709 4.450125 33.847743 -3.020363
2011-07-25 11:35:26 51°24.671 2°43.731 17.759 4.449191 33.858318 -3.020363
2011-07-25 11:36:26 51°24.672 2°43.745 17.7632 4.44888 33.862949 -3.020363
2011-07-25 11:37:26 51°24.671 2°43.76 17.784 4.44971 33.860749 -3.020363
2011-07-25 11:38:26 51°24.669 2°43.774 17.7932 4.450955 33.858114 -3.020363
2011-07-25 11:39:26 51°24.668 2°43.788 17.8049 4.451888 33.855479 -3.020363
2011-07-25 11:40:26 51°24.669 2°43.802 17.8156 4.452718 33.854608 -3.020363
2011-07-25 11:41:26 51°24.671 2°43.814 17.824 4.453236 33.85109 -3.020363
2011-07-25 11:42:26 51°24.673 2°43.825 17.8328 4.453755 33.849556 -3.020363
2011-07-25 11:43:26 51°24.677 2°43.836 17.8403 4.454377 33.846263 -3.020363
2011-07-25 11:44:26 51°24.686 2°43.843 17.8427 4.454895 33.846052 -3.020363
2011-07-25 11:45:26 51°24.698 2°43.829 17.8312 4.455414 33.850462 -3.020363
2011-07-25 11:46:26 51°24.714 2°43.739 17.8094 4.455622 33.860152 -3.020363
2011-07-25 11:47:26 51°24.718 2°43.638 17.7898 4.455933 33.887927 -3.020363
2011-07-25 11:48:26 51°24.698 2°43.594 17.782 4.455311 33.894545 -3.020363
2011-07-25 11:49:26 51°24.687 2°43.583 17.7717 4.455311 33.897194 -3.020363
2011-07-25 11:50:26 51°24.679 2°43.579 17.7584 4.455208 33.906249 -3.020363
2011-07-25 11:51:26 51°24.669 2°43.575 17.7557 4.454689 33.905808 -3.020363
2011-07-25 11:52:26 51°24.632 2°43.585 17.719 4.454482 33.917966 -3.020363
2011-07-25 11:53:26 51°24.621 2°43.652 17.7213 4.453653 33.940104 -3.020363
2011-07-25 11:54:26 51°24.654 2°43.705 17.7039 4.453445 33.934349 -3.020363
2011-07-25 11:55:26 51°24.668 2°43.722 17.7117 4.452615 33.935244 -3.020363
2011-07-25 11:56:26 51°24.67 2°43.729 17.7067 4.452512 33.931701 -3.020363
2011-07-25 11:57:26 51°24.67 2°43.738 17.7086 4.452304 33.93126 -3.020363
2011-07-25 11:58:26 51°24.669 2°43.747 17.7101 4.451889 33.927721 -3.020363
2011-07-25 11:59:26 51°24.667 2°43.754 17.7155 4.451474 33.922854 -3.020363
2011-07-25 12:00:26 51°24.663 2°43.759 17.7166 4.4522 33.924397 -3.020363
2011-07-25 12:01:26 51°24.659 2°43.765 17.7195 4.452823 33.927712 -3.020363
2011-07-25 12:02:26 51°24.654 2°43.771 17.7323 4.452926 33.924613 -3.020363
2011-07-25 12:03:26 51°24.649 2°43.778 17.739 4.453237 33.918636 -3.020363
2011-07-25 12:04:26 51°24.642 2°43.783 17.7354 4.453652 33.916201 -3.020363
2011-07-25 12:05:26 51°24.636 2°43.788 17.7236 4.453652 33.924828 -3.020363
2011-07-25 12:06:26 51°24.629 2°43.793 17.7065 4.453134 33.930366 -3.020363
2011-07-25 12:07:26 51°24.628 2°43.803 17.6952 4.452408 33.936797 -3.020363
2011-07-25 12:08:26 51°24.655 2°43.858 17.6908 4.452201 33.943004 -3.020363
2011-07-25 12:09:26 51°24.65 2°43.957 17.6955 4.451682 33.939243 -3.020363
2011-07-25 12:10:26 51°24.585 2°44.037 17.7237 4.451059 33.924629 -3.020363
2011-07-25 12:11:26 51°24.466 2°44.154 17.7383 4.451163 33.905595 -3.020363
2011-07-25 12:12:26 51°24.308 2°44.313 17.7633 4.450437 33.888794 -3.020363
2011-07-25 12:13:26 51°24.125 2°44.48 17.7192 4.451059 33.880181 -3.020363
2011-07-25 12:14:26 51°23.941 2°44.659 17.7472 4.448362 33.884372 -3.020363
2011-07-25 12:15:26 51°23.759 2°44.844 17.7771 4.443072 33.814133 -3.020363
2011-07-25 12:16:26 51°23.563 2°44.985 17.7477 4.44276 33.80157 -3.020363
2011-07-25 12:17:26 51°23.369 2°45.138 17.7655 4.439338 33.787618 -3.020363
2011-07-25 12:18:26 51°23.178 2°45.298 17.7784 4.435188 33.73645 -3.020363
2011-07-25 12:19:26 51°22.988 2°45.463 17.765 4.433944 33.725197 -3.020363
2011-07-25 12:20:26 51°22.795 2°45.616 17.8069 4.433425 33.71617 -3.020363
2011-07-25 12:21:26 51°22.606 2°45.775 17.8055 4.435188 33.701543 -3.020363
2011-07-25 12:22:26 51°22.416 2°45.933 17.7825 4.430105 33.669506 -3.020363
2011-07-25 12:23:26 51°22.228 2°46.091 17.7971 4.423052 33.614786 -3.020363
2011-07-25 12:24:26 51°22.047 2°46.272 17.8012 4.416622 33.558802 -3.020363
2011-07-25 12:25:26 51°21.866 2°46.457 17.8119 4.409983 33.491265 -3.020363
2011-07-25 12:26:26 51°21.682 2°46.627 17.8073 4.405523 33.444892 -3.020363
2011-07-25 12:27:26 51°21.498 2°46.798 17.7961 4.400545 33.414358 -3.020363
2011-07-25 12:28:26 51°21.333 2°47.007 17.7871 4.396604 33.390664 -3.020363
2011-07-25 12:29:26 51°21.168 2°47.22 17.8254 4.390796 33.336125 -3.020363
2011-07-25 12:30:26 51°20.998 2°47.42 17.8226 4.391418 33.314094 -3.020363
2011-07-25 12:31:26 51°20.833 2°47.63 17.8428 4.391106 33.312754 -3.020363
2011-07-25 12:32:26 51°20.666 2°47.832 17.8293 4.390588 33.293418 -3.020363
2011-07-25 12:33:26 51°20.502 2°48.041 17.835 4.382498 33.235191 -3.020363
2011-07-25 12:34:26 51°20.335 2°48.248 17.8355 4.37472 33.165355 -3.020363
2011-07-25 12:35:26 51°20.166 2°48.459 17.8778 4.363104 33.061755 -3.020363
2011-07-25 12:36:26 51°19.995 2°48.662 17.8902 4.358644 32.990542 -3.020363
2011-07-25 12:37:26 51°19.822 2°48.862 17.8894 4.358955 32.989964 -3.020363
2011-07-25 12:38:26 51°19.652 2°49.065 17.8743 4.358955 32.995102 -3.020363
2011-07-25 12:39:26 51°19.481 2°49.269 17.8911 4.354496 32.966996 -3.020363
2011-07-25 12:40:26 51°19.318 2°49.477 17.978 4.355325 32.936816 -3.020363
2011-07-25 12:41:26 51°19.15 2°49.678 17.999 4.354701 32.88104 -3.020363
2011-07-25 12:42:26 51°18.986 2°49.873 17.9686 4.342983 32.77388 -3.020363
2011-07-25 12:43:26 51°18.819 2°50.069 17.9314 4.328672 32.67921 -3.020363
2011-07-25 12:44:26 51°18.648 2°50.257 17.8622 4.313325 32.583944 -3.020363
2011-07-25 12:45:26 51°18.479 2°50.454 17.8306 4.300882 32.533352 -3.020363
2011-07-25 12:46:26 51°18.308 2°50.651 17.8481 4.296838 32.50868 -3.020363
2011-07-25 12:47:26 51°18.132 2°50.843 17.8529 4.296942 32.494356 -3.020363
2011-07-25 12:48:26 51°17.965 2°51.053 17.939 4.298912 32.500872 -3.020363
2011-07-25 12:49:26 51°17.82 2°51.287 17.923 4.314673 32.573154 -3.020363
2011-07-25 12:50:26 51°17.68 2°51.526 17.8649 4.314362 32.595867 -3.020363
2011-07-25 12:51:26 51°17.545 2°51.775 17.8551 4.304304 32.557199 -3.020363
2011-07-25 12:52:26 51°17.411 2°52.028 17.8596 4.301504 32.520235 -3.020363
2011-07-25 12:53:26 51°17.258 2°52.258 17.8766 4.293001 32.452219 -3.020363
2011-07-25 12:54:26 51°17.094 2°52.469 17.9109 4.29103 32.414753 -3.020363
2011-07-25 12:55:26 51°16.914 2°52.649 17.9016 4.293623 32.423381 -3.020363
2011-07-25 12:56:26 51°16.729 2°52.806 17.9391 4.295282 32.433592 -3.020363
2011-07-25 12:57:26 51°16.538 2°52.959 17.9687 4.299118 32.432534 -3.020363
2011-07-25 12:58:26 51°16.345 2°53.102 17.9555 4.298288 32.416099 -3.020363
2011-07-25 12:59:26 51°16.158 2°53.261 17.9052 4.290718 32.365531 -3.020363
2011-07-25 13:00:26 51°15.967 2°53.411 17.9612 4.280972 32.318575 -3.020363
2011-07-25 13:01:26 51°15.773 2°53.553 18.1206 4.289473 32.298592 -3.020363
2011-07-25 13:02:26 51°15.581 2°53.699 18.0729 4.289161 32.234131 -3.020363
2011-07-25 13:03:26 51°15.406 2°53.885 18.0152 4.280659 32.190785 -3.020363
2011-07-25 13:04:26 51°15.25 2°54.104 18.0045 4.269876 32.151276 -3.020363
2011-07-25 13:05:26 51°15.087 2°54.314 18.0195 4.267698 32.114905 -3.020363
2011-07-25 13:06:26 51°14.92 2°54.513 17.994 2.638848 18.113437 -3.020363
2011-07-25 13:07:26 51°14.752 2°54.703 18.0146 0.206412 1.181429 -3.020363
2011-07-25 13:08:26 51°14.583 2°54.897 18.0813 0.070265 0.383869 -3.020363
2011-07-25 13:09:26 51°14.432 2°55.109 18.1057 0.058749 0.319673 -3.020363
2011-07-25 13:10:27 51°14.274 2°55.288 18.4882 0.056282 0.306253 -3.020363
2011-07-25 13:11:26 51°14.148 2°55.395 18.5595 0.05587 0.302259 -3.020363
2011-07-25 13:12:26 51°14.031 2°55.482 18.6193 0.056076 0.302806 -3.020363
2011-07-25 13:13:26 51°13.911 2°55.57 18.9169 0.05659 0.305674 -3.020363
2011-07-25 13:14:27 51°13.811 2°55.649 19.1489 0.05731 0.309755 -3.020363
2011-07-25 13:15:28 51°13.737 2°55.747 19.1803 0.058029 0.313792 -3.020363
2011-07-25 13:16:26 51°13.682 2°55.85 19.2307 0.058852 0.318544 -3.020363
2011-07-25 13:17:26 51°13.641 2°55.943 19.2625 0.059777 0.323771 -3.020363
2011-07-25 13:18:26 51°13.632 2°56.012 19.307 0.060497 0.327834 -3.020363